Time;durP1;ratioP1;P1;durP2;ratioP2;P2;SDS_P1;SDS_P2;PMS_P1;PMS_P2;Temp;Humidity;BMP_temperature;BMP_pressure;BME280_temperature;BME280_humidity;BME280_pressure;Samples;Min_cycle;Max_cycle;Signal;HPM_P1;HPM_P2
2023/09/03 00:01:39;;;;;;;9.50;7.68;;;;;;;18.40;100.00;95281.78;5007021;28;20380;-93
2023/09/03 00:04:05;;;;;;;7.70;7.00;;;;;;;18.50;100.00;95283.16;5008482;28;20091;-95
2023/09/03 00:06:30;;;;;;;8.73;7.88;;;;;;;18.51;100.00;95277.72;5006757;28;20460;-96
2023/09/03 00:08:55;;;;;;;8.82;7.93;;;;;;;18.50;100.00;95283.16;5007757;28;20041;-93
2023/09/03 00:11:21;;;;;;;8.48;7.18;;;;;;;18.72;100.00;95285.22;5007797;28;20109;-91
2023/09/03 00:13:46;;;;;;;7.97;7.18;;;;;;;18.68;100.00;95291.13;5008587;28;20049;-94
2023/09/03 00:16:12;;;;;;;8.70;7.90;;;;;;;18.61;100.00;95287.75;4990024;28;20052;-95
2023/09/03 00:18:37;;;;;;;8.52;7.72;;;;;;;18.63;100.00;95296.19;5007381;28;20499;-96
2023/09/03 00:21:04;;;;;;;8.73;7.90;;;;;;;18.51;100.00;95292.66;5008001;28;20026;-94
2023/09/03 00:23:31;;;;;;;8.00;7.30;;;;;;;18.31;100.00;95306.66;5010980;28;20026;-96
2023/09/03 00:25:57;;;;;;;13.88;9.32;;;;;;;18.10;100.00;95296.47;5010929;28;20037;-95
2023/09/03 00:28:23;;;;;;;10.13;9.15;;;;;;;18.08;100.00;95295.84;5006805;28;20034;-95
2023/09/03 00:31:08;;;;;;;10.15;9.25;;;;;;;18.05;100.00;95296.28;5011668;28;20036;-96
2023/09/03 00:33:33;;;;;;;9.90;9.05;;;;;;;18.13;100.00;95300.47;5009639;28;20026;-96
2023/09/03 00:36:01;;;;;;;9.68;8.98;;;;;;;17.94;100.00;95298.75;5009100;28;20030;-96
2023/09/03 00:38:26;;;;;;;13.05;9.70;;;;;;;17.99;100.00;95298.91;5007579;28;20041;-96
2023/09/03 00:40:51;;;;;;;9.77;8.85;;;;;;;17.83;100.00;95298.38;5007367;28;20018;-96
2023/09/03 00:43:17;;;;;;;10.20;9.45;;;;;;;17.80;100.00;95308.47;5007259;28;20518;-96
2023/09/03 00:45:44;;;;;;;9.55;8.85;;;;;;;17.71;100.00;95314.94;5006851;28;20050;-96
2023/09/03 00:48:11;;;;;;;9.60;8.80;;;;;;;17.77;100.00;95306.25;5012109;28;20560;-96
2023/09/03 00:50:37;;;;;;;9.38;8.68;;;;;;;17.70;100.00;95303.66;5008298;28;20038;-95
2023/09/03 00:53:05;;;;;;;10.38;9.15;;;;;;;17.34;100.00;95311.13;5008229;28;20026;-95
2023/09/03 00:55:32;;;;;;;9.88;9.15;;;;;;;17.16;100.00;95317.00;5008045;28;20062;-96
2023/09/03 00:57:58;;;;;;;9.68;8.93;;;;;;;17.46;100.00;95311.34;5016038;28;20038;-96
2023/09/03 01:00:23;;;;;;;8.98;8.23;;;;;;;17.49;100.00;95306.50;4999713;28;20057;-93
2023/09/03 01:02:49;;;;;;;9.82;9.13;;;;;;;17.15;100.00;95309.34;5009764;28;20030;-97
2023/09/03 01:05:14;;;;;;;9.77;8.88;;;;;;;17.12;100.00;95300.09;5000893;28;20034;-95
2023/09/03 01:07:40;;;;;;;9.57;8.68;;;;;;;17.33;100.00;95301.69;5024564;28;20032;-96
2023/09/03 01:10:06;;;;;;;9.55;8.75;;;;;;;16.97;100.00;95299.50;5005887;28;20029;-92
2023/09/03 01:12:35;;;;;;;8.85;8.25;;;;;;;17.21;100.00;95313.78;5013955;28;20053;-96
2023/09/03 01:15:06;;;;;;;9.60;8.80;;;;;;;17.25;100.00;95305.31;5009668;28;20080;-94
2023/09/03 01:17:58;;;;;;;9.25;8.55;;;;;;;16.95;100.00;95306.75;5010472;28;20153;-92
2023/09/03 01:20:27;;;;;;;9.95;9.25;;;;;;;17.06;100.00;95300.09;5010731;28;20033;-96
2023/09/03 01:23:37;;;;;;;11.47;9.60;;;;;;;17.02;100.00;95297.06;5015657;28;20025;-93
2023/09/03 01:26:16;;;;;;;9.88;9.10;;;;;;;17.05;100.00;95296.66;5001287;28;20537;-96
2023/09/03 01:28:42;;;;;;;9.68;8.88;;;;;;;17.21;100.00;95293.63;5013247;28;20022;-96
2023/09/03 01:31:11;;;;;;;10.00;9.10;;;;;;;16.94;100.00;95292.03;5010130;28;20101;-91
2023/09/03 01:33:41;;;;;;;9.57;8.63;;;;;;;16.79;100.00;95300.06;5009249;28;20034;-94
2023/09/03 01:36:09;;;;;;;10.32;9.27;;;;;;;16.84;100.00;95309.94;5025015;28;20038;-94
2023/09/03 01:38:35;;;;;;;9.63;8.63;;;;;;;16.60;100.00;95316.53;5009187;28;20032;-95
2023/09/03 01:41:01;;;;;;;9.02;8.32;;;;;;;16.30;100.00;95263.78;5082311;22;20050;-96
2023/09/03 01:43:26;;;;;;;10.68;9.50;;;;;;;16.41;100.00;95296.34;4975517;28;20586;-93
2023/09/03 01:46:05;;;;;;;9.70;8.98;;;;;;;16.63;100.00;95321.38;4990403;28;20129;-95
2023/09/03 01:48:58;;;;;;;10.05;9.27;;;;;;;16.76;100.00;95315.38;4994670;28;20040;-96
2023/09/03 01:51:42;;;;;;;9.52;8.82;;;;;;;16.55;100.00;95315.53;4994251;28;20125;-92
2023/09/03 01:54:25;;;;;;;8.90;8.10;;;;;;;16.68;100.00;95313.75;4995180;28;20037;-96
2023/09/03 01:59:46;;;;;;;9.73;8.68;;;;;;;16.60;100.00;95331.47;5042933;22;20065;-93
2023/09/03 02:02:12;;;;;;;10.45;9.48;;;;;;;16.23;100.00;95310.00;5010716;28;20156;-94
2023/09/03 02:07:13;;;;;;;9.60;8.80;;;;;;;16.44;100.00;95326.56;5099123;23;20108;-95
2023/09/03 02:09:38;;;;;;;9.82;9.13;;;;;;;16.42;100.00;95333.78;5013008;28;20026;-96
2023/09/03 02:12:06;;;;;;;9.93;9.07;;;;;;;16.30;100.00;95344.81;5010419;28;20075;-94
2023/09/03 02:14:31;;;;;;;10.85;9.02;;;;;;;16.18;100.00;95346.34;5011315;28;20037;-93
2023/09/03 02:16:56;;;;;;;9.55;8.45;;;;;;;16.13;100.00;95348.75;5010036;28;20030;-93
2023/09/03 02:19:22;;;;;;;10.25;9.20;;;;;;;16.17;100.00;95346.56;5012473;28;20038;-95
2023/09/03 02:21:48;;;;;;;10.18;9.38;;;;;;;16.21;100.00;95359.03;4993357;28;20487;-96
2023/09/03 02:24:14;;;;;;;10.23;9.32;;;;;;;16.26;100.00;95345.38;5014368;28;20084;-95
2023/09/03 02:26:43;;;;;;;9.38;8.40;;;;;;;16.14;100.00;95347.78;5009616;28;20030;-93
2023/09/03 02:29:09;;;;;;;9.32;8.43;;;;;;;16.05;100.00;95353.34;5010229;28;20022;-95
2023/09/03 02:31:35;;;;;;;9.15;8.50;;;;;;;15.97;100.00;95363.94;5009506;28;20045;-94
2023/09/03 02:34:01;;;;;;;13.65;9.40;;;;;;;15.73;100.00;95326.06;5009441;28;20026;-91
2023/09/03 02:36:26;;;;;;;12.32;8.75;;;;;;;15.92;100.00;95369.78;5011361;28;20108;-95
2023/09/03 02:39:03;;;;;;;9.70;8.95;;;;;;;15.89;100.00;95364.94;5010729;28;20510;-96
2023/09/03 02:41:31;;;;;;;9.73;8.93;;;;;;;15.88;100.00;95365.13;5012743;28;20052;-96
2023/09/03 02:43:58;;;;;;;8.63;7.93;;;;;;;15.90;100.00;95366.53;5009425;28;20057;-96
2023/09/03 02:46:24;;;;;;;10.27;8.90;;;;;;;15.99;100.00;95382.88;5009913;28;20129;-95
2023/09/03 02:48:50;;;;;;;10.10;9.40;;;;;;;16.11;100.00;95378.72;5009318;28;20539;-95
2023/09/03 02:51:15;;;;;;;10.77;9.23;;;;;;;16.08;100.00;95374.69;5010618;28;20101;-96
2023/09/03 02:53:42;;;;;;;10.68;9.27;;;;;;;15.92;100.00;95369.78;5009799;28;20113;-95
2023/09/03 02:56:08;;;;;;;10.20;9.40;;;;;;;15.73;100.00;95365.25;5008865;28;20101;-94
2023/09/03 02:58:33;;;;;;;9.20;8.40;;;;;;;15.69;100.00;95374.47;5010164;28;20594;-93
2023/09/03 03:01:19;;;;;;;10.52;9.70;;;;;;;15.65;100.00;95376.66;5008588;28;20036;-95
2023/09/03 03:03:45;;;;;;;10.25;9.45;;;;;;;15.59;100.00;95371.38;5010012;28;20018;-94
2023/09/03 03:06:11;;;;;;;10.60;9.70;;;;;;;15.58;100.00;95388.84;5008738;28;20042;-95
2023/09/03 03:08:36;;;;;;;10.35;8.85;;;;;;;15.52;100.00;95391.41;5009406;28;20029;-94
2023/09/03 03:11:05;;;;;;;10.48;8.55;;;;;;;15.58;100.00;95398.47;5009007;28;20030;-95
2023/09/03 03:13:31;;;;;;;8.90;8.20;;;;;;;15.62;100.00;95386.66;5009608;28;20080;-95
2023/09/03 03:15:56;;;;;;;12.32;9.75;;;;;;;15.45;100.00;95396.53;5009474;28;20672;-96
2023/09/03 03:18:22;;;;;;;10.82;9.88;;;;;;;15.49;100.00;95392.59;5009375;28;20033;-96
2023/09/03 03:20:47;;;;;;;10.55;8.48;;;;;;;15.56;100.00;95387.41;5009718;28;20029;-95
2023/09/03 03:23:12;;;;;;;10.18;9.20;;;;;;;15.37;100.00;95381.03;5009580;28;20403;-95
2023/09/03 03:25:38;;;;;;;9.20;8.35;;;;;;;15.55;100.00;95381.38;5016176;28;20037;-96
2023/09/03 03:28:04;;;;;;;9.55;8.85;;;;;;;15.61;100.00;95364.97;5016903;28;20036;-96
2023/09/03 03:30:29;;;;;;;9.57;8.88;;;;;;;15.68;100.00;95370.22;5024179;28;20463;-96
2023/09/03 03:32:54;;;;;;;9.30;8.48;;;;;;;15.61;100.00;95366.75;5011685;28;20029;-96
2023/09/03 03:35:20;;;;;;;11.13;8.82;;;;;;;15.42;100.00;95378.66;5010328;28;20468;-96
2023/09/03 03:37:45;;;;;;;9.15;8.45;;;;;;;15.42;100.00;95383.06;4991738;28;20022;-94
2023/09/03 03:40:11;;;;;;;9.55;8.65;;;;;;;15.47;100.00;95386.75;5008632;28;20030;-96
2023/09/03 03:42:36;;;;;;;13.52;9.77;;;;;;;15.35;100.00;95371.78;5009858;28;20034;-96
2023/09/03 03:45:02;;;;;;;10.20;8.95;;;;;;;15.32;100.00;95378.16;5007974;28;20503;-96
2023/09/03 03:47:28;;;;;;;9.95;8.80;;;;;;;15.31;100.00;95387.00;5010451;28;20038;-96
2023/09/03 03:49:53;;;;;;;9.35;8.65;;;;;;;15.25;100.00;95390.38;4992063;28;20175;-96
2023/09/03 03:52:18;;;;;;;9.82;8.88;;;;;;;15.29;100.00;95400.25;5010716;28;20108;-96
2023/09/03 03:54:44;;;;;;;11.20;10.15;;;;;;;15.34;100.00;95396.25;5009686;28;20026;-96
2023/09/03 03:57:09;;;;;;;9.13;8.32;;;;;;;15.23;100.00;95406.22;5009566;28;20026;-96
2023/09/03 03:59:35;;;;;;;12.35;9.63;;;;;;;15.31;100.00;95397.44;5009809;28;20032;-96
2023/09/03 04:02:00;;;;;;;11.55;8.98;;;;;;;15.35;100.00;95396.06;5010338;28;20426;-96
2023/09/03 04:04:26;;;;;;;9.55;8.85;;;;;;;15.43;100.00;95389.91;5010723;28;20026;-96
2023/09/03 04:06:51;;;;;;;11.30;9.02;;;;;;;15.47;100.00;95391.97;5008773;28;20041;-95
2023/09/03 04:09:17;;;;;;;9.55;8.65;;;;;;;15.47;100.00;95384.13;5010080;28;20415;-96
2023/09/03 04:11:42;;;;;;;9.98;9.10;;;;;;;15.42;100.00;95385.66;5009559;28;20516;-96
2023/09/03 04:14:07;;;;;;;9.00;8.27;;;;;;;15.57;100.00;95379.38;5010038;28;20018;-96
2023/09/03 04:16:33;;;;;;;9.52;8.73;;;;;;;15.68;100.00;95368.41;5008818;28;20030;-96
2023/09/03 04:18:58;;;;;;;11.00;8.80;;;;;;;15.72;100.00;95359.22;5008469;28;20684;-96
2023/09/03 04:21:23;;;;;;;9.32;8.43;;;;;;;15.63;100.00;95370.81;4991319;28;20042;-95
2023/09/03 04:23:49;;;;;;;9.85;8.48;;;;;;;15.71;100.00;95373.25;4992421;28;20432;-95
2023/09/03 04:26:14;;;;;;;9.85;9.05;;;;;;;15.71;100.00;95372.44;5008687;28;20058;-96
2023/09/03 04:28:40;;;;;;;9.52;8.50;;;;;;;15.64;100.00;95358.53;5007689;28;20083;-95
2023/09/03 04:31:08;;;;;;;9.27;8.40;;;;;;;15.67;100.00;95361.56;5015940;28;20026;-96
2023/09/03 04:33:35;;;;;;;9.45;8.65;;;;;;;15.98;100.00;95358.56;5028437;28;20033;-96
2023/09/03 04:36:02;;;;;;;9.07;8.20;;;;;;;16.28;100.00;95346.81;5027390;28;20030;-97
2023/09/03 04:38:28;;;;;;;9.77;7.95;;;;;;;16.39;100.00;95329.75;5019564;28;20049;-95
2023/09/03 04:40:54;;;;;;;9.05;8.25;;;;;;;16.42;100.00;95339.00;5008274;28;20022;-92
2023/09/03 04:43:20;;;;;;;8.52;7.82;;;;;;;17.49;100.00;95316.97;4991175;28;20059;-96
2023/09/03 04:45:46;;;;;;;6.50;5.88;;;;;;;19.16;100.00;95270.38;5008553;28;20034;-92
2023/09/03 04:48:12;;;;;;;6.63;6.05;;;;;;;20.69;100.00;95253.41;5010463;28;20022;-92
2023/09/03 04:50:37;;;;;;;6.05;5.65;;;;;;;21.05;100.00;95250.63;5011465;28;20033;-93
2023/09/03 04:53:03;;;;;;;5.05;4.65;;;;;;;21.15;100.00;95250.88;5012148;28;20061;-92
2023/09/03 04:55:32;;;;;;;6.57;5.93;;;;;;;22.50;100.00;95246.84;5013241;28;20029;-93
2023/09/03 04:57:58;;;;;;;5.47;4.97;;;;;;;22.72;100.00;95243.53;5011870;28;20396;-92
2023/09/03 05:00:23;;;;;;;5.72;5.35;;;;;;;22.95;100.00;95246.03;5010937;28;20029;-92
2023/09/03 05:02:48;;;;;;;5.28;4.78;;;;;;;23.52;100.00;95244.81;5012244;28;20058;-92
2023/09/03 05:05:14;;;;;;;5.30;4.93;;;;;;;23.50;100.00;95244.22;5011772;28;20022;-92
2023/09/03 05:07:39;;;;;;;4.80;4.18;;;;;;;23.55;100.00;95241.69;5011568;28;20041;-92
2023/09/03 05:10:05;;;;;;;6.72;4.40;;;;;;;24.06;97.29;95243.13;5010384;28;20037;-93
2023/09/03 05:12:32;;;;;;;4.70;4.32;;;;;;;24.33;94.84;95240.53;5009740;28;20026;-92
2023/09/03 05:14:58;;;;;;;9.63;4.65;;;;;;;24.47;93.52;95238.28;5009971;28;20037;-93
2023/09/03 05:17:23;;;;;;;5.85;4.60;;;;;;;24.54;92.78;95244.19;5009911;28;20030;-91
2023/09/03 05:19:49;;;;;;;4.72;4.25;;;;;;;24.62;91.33;95231.31;5009288;28;20537;-92
2023/09/03 05:22:14;;;;;;;6.13;5.10;;;;;;;25.37;87.54;95234.81;5011376;28;20022;-92
2023/09/03 05:24:40;;;;;;;4.72;3.95;;;;;;;25.86;83.02;95228.22;4993498;28;20022;-92
2023/09/03 05:27:05;;;;;;;5.80;5.35;;;;;;;25.68;84.35;95220.72;5010597;28;20025;-92
2023/09/03 05:29:30;;;;;;;7.20;4.93;;;;;;;25.16;87.12;95223.28;5011024;28;20026;-92
2023/09/03 05:31:56;;;;;;;5.60;5.20;;;;;;;25.76;84.12;95228.16;5010226;28;20399;-94
2023/09/03 05:34:22;;;;;;;10.07;8.15;;;;;;;26.29;81.17;95226.28;5009730;28;20041;-93
2023/09/03 05:36:47;;;;;;;5.15;4.75;;;;;;;26.61;78.14;95225.03;5009144;28;20061;-93
2023/09/03 05:39:12;;;;;;;4.50;4.28;;;;;;;26.79;77.32;95221.03;5010299;28;20057;-93
2023/09/03 05:41:38;;;;;;;4.47;4.18;;;;;;;27.17;75.42;95214.41;5011457;28;20053;-96
2023/09/03 05:44:09;;;;;;;5.50;4.63;;;;;;;27.49;72.89;95208.81;5011060;28;20030;-92
2023/09/03 05:46:34;;;;;;;4.00;3.70;;;;;;;27.51;71.33;95210.16;5010974;28;20076;-93
2023/09/03 05:49:00;;;;;;;4.63;4.32;;;;;;;28.43;65.77;95207.91;5008527;28;20030;-92
2023/09/03 05:51:25;;;;;;;4.35;4.07;;;;;;;28.94;63.48;95217.19;5010155;28;20069;-92
2023/09/03 05:53:51;;;;;;;4.47;4.05;;;;;;;29.67;61.92;95220.53;5009444;28;20425;-92
2023/09/03 05:56:16;;;;;;;5.00;4.50;;;;;;;29.18;63.44;95217.28;5008916;28;20502;-94
2023/09/03 05:58:42;;;;;;;4.75;4.13;;;;;;;28.95;66.22;95210.78;5008424;28;20022;-93
2023/09/03 06:01:10;;;;;;;4.65;4.25;;;;;;;29.43;64.83;95213.59;5008421;28;20046;-93
2023/09/03 06:03:37;;;;;;;4.65;4.25;;;;;;;29.82;60.84;95214.25;5009644;28;20025;-93
2023/09/03 06:06:04;;;;;;;6.45;4.72;;;;;;;30.09;59.33;95221.69;5008113;28;20053;-93
2023/09/03 06:08:30;;;;;;;4.30;4.00;;;;;;;30.84;55.91;95223.38;5009256;28;20104;-93
2023/09/03 06:10:56;;;;;;;4.78;4.38;;;;;;;29.10;61.61;95229.34;5008956;28;20026;-94
2023/09/03 06:13:28;;;;;;;6.53;4.70;;;;;;;28.21;66.41;95229.63;5008972;28;20216;-95
2023/09/03 06:15:54;;;;;;;4.97;4.45;;;;;;;28.65;66.45;95227.81;5009886;28;20076;-94
2023/09/03 06:18:20;;;;;;;4.97;4.35;;;;;;;28.10;68.10;95231.53;5009186;28;20439;-95
2023/09/03 06:20:46;;;;;;;4.57;4.10;;;;;;;28.06;69.05;95227.03;5010913;28;20026;-93
2023/09/03 06:23:15;;;;;;;5.28;4.07;;;;;;;27.67;70.76;95234.88;5011700;28;20026;-94
2023/09/03 06:25:42;;;;;;;4.22;3.83;;;;;;;28.57;66.88;95235.56;5010286;28;20480;-91
2023/09/03 06:28:07;;;;;;;4.32;3.70;;;;;;;29.52;62.54;95235.94;5009260;28;20467;-92
2023/09/03 06:30:33;;;;;;;3.83;3.53;;;;;;;30.99;57.68;95235.72;5009282;28;20041;-94
2023/09/03 06:32:58;;;;;;;4.13;3.40;;;;;;;31.92;52.93;95233.88;4992057;28;20026;-95
2023/09/03 06:35:24;;;;;;;3.60;3.30;;;;;;;33.07;48.68;95237.88;5012520;28;20037;-94
2023/09/03 06:37:50;;;;;;;3.85;3.40;;;;;;;33.44;46.97;95245.56;5014432;28;20030;-96
2023/09/03 06:40:16;;;;;;;4.30;3.90;;;;;;;34.50;43.92;95250.78;5011343;28;20496;-96
2023/09/03 06:42:42;;;;;;;3.40;3.13;;;;;;;33.95;45.27;95246.94;5019030;28;20033;-96
2023/09/03 06:45:08;;;;;;;4.93;3.70;;;;;;;35.01;43.18;95241.19;5014591;28;20033;-90
2023/09/03 06:47:33;;;;;;;4.55;3.97;;;;;;;34.95;43.51;95248.63;4999143;28;20030;-96
2023/09/03 06:49:59;;;;;;;5.20;4.63;;;;;;;35.27;42.25;95245.47;5002885;28;20045;-94
2023/09/03 06:52:24;;;;;;;4.87;4.30;;;;;;;36.36;39.48;95238.47;4999933;28;20064;-96
2023/09/03 06:54:50;;;;;;;5.20;4.83;;;;;;;36.71;38.75;95241.75;5014298;28;20040;-94
2023/09/03 06:57:16;;;;;;;5.30;4.90;;;;;;;36.78;37.84;95243.94;5015697;28;20507;-95
2023/09/03 06:59:42;;;;;;;5.18;4.78;;;;;;;37.09;37.08;95249.75;4999178;28;20030;-94
2023/09/03 07:02:08;;;;;;;5.30;4.93;;;;;;;37.50;35.98;95251.66;5017978;28;20026;-96
2023/09/03 07:04:34;;;;;;;5.40;4.97;;;;;;;37.70;36.24;95248.06;5001438;28;20521;-93
2023/09/03 07:07:00;;;;;;;6.63;5.13;;;;;;;37.82;35.40;95253.53;4992937;28;20042;-90
2023/09/03 07:09:29;;;;;;;5.13;4.43;;;;;;;38.09;34.76;95248.59;5012997;28;20022;-96
2023/09/03 07:11:54;;;;;;;4.90;4.50;;;;;;;37.51;34.94;95253.19;5012787;28;20439;-92
2023/09/03 07:14:20;;;;;;;5.10;4.60;;;;;;;38.40;35.07;95255.06;5016429;28;20030;-96
2023/09/03 07:16:45;;;;;;;4.95;4.53;;;;;;;38.85;33.99;95254.91;5018656;28;20032;-94
2023/09/03 07:19:11;;;;;;;4.20;3.87;;;;;;;38.09;35.15;95259.41;5015163;28;20044;-90
2023/09/03 07:21:36;;;;;;;4.67;4.20;;;;;;;37.75;34.56;95255.97;5009723;28;20080;-89
2023/09/03 07:24:01;;;;;;;4.40;4.00;;;;;;;37.45;36.37;95257.22;5010130;28;20549;-92
2023/09/03 07:26:27;;;;;;;4.33;4.03;;;;;;;38.60;34.64;95245.22;5012539;28;20025;-95
2023/09/03 07:28:52;;;;;;;4.60;4.20;;;;;;;38.04;35.08;95248.81;5013967;28;20147;-92
2023/09/03 07:31:18;;;;;;;5.40;4.13;;;;;;;37.94;35.36;95245.44;5011146;28;20018;-94
2023/09/03 07:33:44;;;;;;;4.97;4.55;;;;;;;37.26;36.07;95248.81;4992639;28;20030;-93
2023/09/03 07:36:10;;;;;;;4.90;4.50;;;;;;;32.64;45.84;95246.38;5007493;28;20025;-92
2023/09/03 07:38:37;;;;;;;5.15;4.85;;;;;;;31.43;50.56;95248.69;5009297;28;20073;-92
2023/09/03 07:41:02;;;;;;;5.55;5.15;;;;;;;30.84;53.79;95239.41;5008477;28;20061;-94
2023/09/03 07:43:29;;;;;;;5.65;5.20;;;;;;;29.85;56.94;95235.09;5008555;28;20513;-94
2023/09/03 07:45:54;;;;;;;6.35;4.93;;;;;;;30.15;57.32;95239.28;5006932;28;20092;-93
2023/09/03 07:48:20;;;;;;;5.70;4.80;;;;;;;30.69;54.98;95244.22;5008098;28;20435;-88
2023/09/03 07:50:47;;;;;;;12.10;5.53;;;;;;;30.26;56.50;95244.22;5007824;28;20042;-91
2023/09/03 07:53:12;;;;;;;25.05;6.25;;;;;;;30.16;56.57;95244.34;5008309;28;20026;-90
2023/09/03 07:55:38;;;;;;;6.15;5.55;;;;;;;30.40;58.93;95239.00;5007954;28;20034;-92
2023/09/03 07:58:03;;;;;;;5.97;5.38;;;;;;;30.39;56.45;95228.53;5006904;28;20458;-90
2023/09/03 08:00:29;;;;;;;6.47;5.85;;;;;;;30.34;59.12;95232.09;5007621;28;20511;-92
2023/09/03 08:02:54;;;;;;;5.28;4.97;;;;;;;30.37;56.61;95238.72;5007789;28;20061;-93
2023/09/03 08:05:20;;;;;;;5.20;4.80;;;;;;;30.48;57.15;95235.66;5008313;28;20086;-90
2023/09/03 08:07:46;;;;;;;5.50;4.90;;;;;;;30.81;56.01;95237.31;4990812;28;20419;-89
2023/09/03 08:10:11;;;;;;;5.30;4.90;;;;;;;30.49;55.54;95231.09;5007605;28;20042;-89
2023/09/03 08:12:37;;;;;;;5.10;4.70;;;;;;;30.60;56.41;95232.56;5007937;28;20029;-90
2023/09/03 08:15:02;;;;;;;5.53;5.03;;;;;;;29.97;53.21;95240.81;5006244;28;20026;-90
2023/09/03 08:17:30;;;;;;;4.90;4.50;;;;;;;30.58;53.91;95238.19;5007774;28;20041;-84
2023/09/03 08:19:56;;;;;;;6.88;4.93;;;;;;;30.12;52.11;95237.16;5007155;28;20033;-85
2023/09/03 08:22:22;;;;;;;5.68;5.25;;;;;;;30.29;53.66;95230.25;5007325;28;20030;-92
2023/09/03 08:24:47;;;;;;;5.40;5.00;;;;;;;30.53;53.99;95242.81;5010645;28;20025;-83
2023/09/03 08:27:12;;;;;;;4.97;4.57;;;;;;;30.83;50.14;95226.31;5012468;28;20026;-91
2023/09/03 08:29:38;;;;;;;5.35;4.85;;;;;;;30.83;48.29;95221.75;4994161;28;20029;-90
2023/09/03 08:32:03;;;;;;;8.02;5.20;;;;;;;30.56;48.85;95218.97;5011132;28;20022;-88
2023/09/03 08:34:29;;;;;;;5.57;5.13;;;;;;;30.28;51.98;95217.97;5012457;28;20419;-88
2023/09/03 08:36:54;;;;;;;7.40;4.80;;;;;;;30.53;50.94;95210.72;5010653;28;20502;-91
2023/09/03 08:39:20;;;;;;;5.45;4.97;;;;;;;30.90;46.83;95212.56;5012414;28;20033;-89
2023/09/03 08:41:46;;;;;;;5.45;4.75;;;;;;;30.08;47.55;95218.25;5010768;28;20033;-81
2023/09/03 08:44:33;;;;;;;14.02;6.00;;;;;;;30.00;47.38;95202.81;5010943;28;20026;-82
2023/09/03 08:47:00;;;;;;;5.63;5.25;;;;;;;29.33;49.81;95203.00;5011127;28;20045;-86
2023/09/03 08:49:28;;;;;;;5.50;5.05;;;;;;;29.11;49.29;95198.09;5009500;28;20400;-88
2023/09/03 08:51:54;;;;;;;5.97;5.57;;;;;;;30.48;49.93;95202.75;4994645;28;20022;-86
2023/09/03 08:54:19;;;;;;;5.40;4.95;;;;;;;30.72;49.04;95196.25;5010750;28;20101;-89
2023/09/03 08:56:46;;;;;;;5.13;4.65;;;;;;;30.80;47.48;95195.59;5010462;28;20435;-89
2023/09/03 08:59:11;;;;;;;6.32;4.82;;;;;;;30.58;46.51;95189.25;5009410;28;20038;-87
2023/09/03 09:01:37;;;;;;;6.88;5.10;;;;;;;30.83;46.33;95183.50;5011270;28;20474;-86
2023/09/03 09:04:03;;;;;;;5.25;4.80;;;;;;;30.89;44.82;95176.97;5010540;28;20150;-88
2023/09/03 09:06:30;;;;;;;5.05;4.70;;;;;;;30.94;42.92;95171.56;5009783;28;20515;-86
2023/09/03 09:09:00;;;;;;;4.88;4.32;;;;;;;30.40;41.80;95163.31;5010059;28;20221;-87
2023/09/03 09:11:31;;;;;;;5.50;5.05;;;;;;;29.17;42.15;95170.28;5008903;28;20030;-88
2023/09/03 09:13:57;;;;;;;4.40;4.10;;;;;;;28.12;42.93;95164.66;5010362;28;20476;-88
2023/09/03 09:16:23;;;;;;;8.40;4.88;;;;;;;29.19;42.85;95168.94;5008515;28;20033;-87
2023/09/03 09:18:48;;;;;;;6.65;4.80;;;;;;;30.59;42.04;95162.22;5009829;28;20557;-90
2023/09/03 09:21:15;;;;;;;4.53;4.22;;;;;;;30.81;42.65;95157.03;5008578;28;20029;-88
2023/09/03 09:23:40;;;;;;;4.57;4.25;;;;;;;30.83;41.63;95159.41;5009220;28;20026;-83
2023/09/03 09:26:21;;;;;;;5.00;4.70;;;;;;;31.12;42.83;95154.66;5009730;28;20052;-88
2023/09/03 09:29:00;;;;;;;6.95;4.78;;;;;;;30.96;42.50;95158.69;5009776;28;20421;-87
2023/09/03 09:31:28;;;;;;;5.30;4.80;;;;;;;30.10;43.41;95159.94;4993253;28;20072;-86
2023/09/03 09:33:53;;;;;;;6.57;4.33;;;;;;;30.67;42.92;95152.72;5007782;28;20507;-86
2023/09/03 09:36:19;;;;;;;5.07;4.75;;;;;;;30.44;41.05;95151.72;5010320;28;20061;-85
2023/09/03 09:38:44;;;;;;;5.35;4.90;;;;;;;30.52;42.01;95144.94;5008848;28;20022;-83
2023/09/03 09:41:39;;;;;;;5.38;4.88;;;;;;;30.39;42.88;95148.31;4992550;28;20018;-86
2023/09/03 09:44:10;;;;;;;4.88;4.32;;;;;;;31.09;42.49;95133.84;4992977;28;20042;-89
2023/09/03 09:46:35;;;;;;;4.38;4.07;;;;;;;30.47;40.10;95134.31;5007955;28;20034;-82
2023/09/03 09:49:01;;;;;;;4.45;4.15;;;;;;;31.07;40.30;95129.88;4993209;28;20028;-86
2023/09/03 09:51:28;;;;;;;5.13;4.63;;;;;;;31.69;40.29;95134.59;5008009;28;20112;-88
2023/09/03 09:53:58;;;;;;;4.55;4.25;;;;;;;31.45;40.81;95130.50;5009228;28;20026;-85
2023/09/03 09:56:28;;;;;;;4.88;4.57;;;;;;;31.27;40.61;95124.16;4992720;28;20120;-85
2023/09/03 09:58:54;;;;;;;5.25;4.75;;;;;;;31.41;40.14;95118.78;5008791;28;20029;-88
2023/09/03 10:01:19;;;;;;;4.97;4.63;;;;;;;31.67;40.23;95114.56;5009277;28;20026;-86
2023/09/03 10:03:49;;;;;;;4.50;4.20;;;;;;;31.74;39.72;95113.06;5007758;28;20025;-85
2023/09/03 10:06:19;;;;;;;4.82;4.53;;;;;;;31.75;39.05;95116.53;5010279;28;20042;-89
2023/09/03 10:08:45;;;;;;;5.10;4.60;;;;;;;31.85;39.25;95111.75;5007660;28;20029;-79
2023/09/03 10:11:11;;;;;;;5.22;4.78;;;;;;;31.52;38.48;95104.94;5008771;28;20034;-88
2023/09/03 10:13:41;;;;;;;4.72;4.40;;;;;;;31.17;37.98;95106.41;4992263;28;20026;-81
2023/09/03 10:16:08;;;;;;;5.13;4.38;;;;;;;31.05;39.28;95102.63;5007625;28;20037;-86
2023/09/03 10:18:47;;;;;;;5.05;4.57;;;;;;;30.93;39.89;95088.84;5008457;28;20034;-90
2023/09/03 10:21:18;;;;;;;4.40;4.10;;;;;;;31.70;40.02;95085.28;5007255;28;20115;-86
2023/09/03 10:23:51;;;;;;;4.95;4.65;;;;;;;32.12;40.16;95080.63;5009295;28;20641;-86
2023/09/03 10:26:25;;;;;;;5.03;4.63;;;;;;;32.13;40.34;95075.00;5008030;28;20026;-88
2023/09/03 10:28:55;;;;;;;4.95;4.55;;;;;;;31.64;40.60;95074.94;5007656;28;20026;-82
2023/09/03 10:31:21;;;;;;;4.60;4.28;;;;;;;30.95;40.95;95073.31;5008370;28;20032;-86
2023/09/03 10:33:47;;;;;;;4.90;4.50;;;;;;;30.87;40.86;95065.94;5007471;28;20040;-86
2023/09/03 10:36:20;;;;;;;5.60;4.50;;;;;;;30.81;41.28;95060.69;5008310;28;20530;-88
2023/09/03 10:38:45;;;;;;;4.55;4.25;;;;;;;30.54;41.20;95060.63;5006651;28;20057;-83
2023/09/03 10:41:24;;;;;;;4.93;4.53;;;;;;;29.49;42.51;95062.91;5008134;28;20500;-84
2023/09/03 10:43:53;;;;;;;5.25;4.85;;;;;;;29.70;41.84;95056.25;5007818;28;20037;-84
2023/09/03 10:46:25;;;;;;;5.10;4.70;;;;;;;30.97;40.88;95057.78;5007145;28;20034;-84
2023/09/03 10:48:56;;;;;;;5.75;4.47;;;;;;;31.41;40.89;95057.19;5008134;28;20084;-88
2023/09/03 10:51:35;;;;;;;4.75;4.45;;;;;;;31.71;40.72;95053.91;5006779;28;20026;-84
2023/09/03 10:54:15;;;;;;;5.00;4.60;;;;;;;31.53;39.63;95052.16;4991544;28;20037;-87
2023/09/03 10:57:06;;;;;;;4.43;4.03;;;;;;;31.52;40.45;95056.72;5006606;28;20061;-79
2023/09/03 11:00:05;;;;;;;5.07;4.78;;;;;;;30.39;40.69;95052.81;5008155;28;20117;-88
2023/09/03 11:02:31;;;;;;;5.10;4.70;;;;;;;30.16;41.61;95045.69;5009376;28;20030;-84
2023/09/03 11:05:26;;;;;;;5.13;4.63;;;;;;;29.88;43.36;95039.44;5008073;28;20030;-84
2023/09/03 11:08:20;;;;;;;5.18;4.72;;;;;;;29.64;43.16;95031.47;5004673;28;20081;-84
2023/09/03 11:10:46;;;;;;;8.02;4.80;;;;;;;29.81;41.63;95022.94;5007501;28;20030;-85
2023/09/03 11:13:12;;;;;;;5.15;4.68;;;;;;;30.29;41.30;95019.03;5006333;28;20824;-85
2023/09/03 11:15:46;;;;;;;4.70;4.40;;;;;;;30.72;42.58;95027.69;5007527;28;20036;-86
2023/09/03 11:18:18;;;;;;;4.90;4.50;;;;;;;30.65;41.56;95015.78;5006505;28;20084;-85
2023/09/03 11:20:43;;;;;;;5.22;4.43;;;;;;;30.27;41.27;95012.38;5006891;28;20505;-81
2023/09/03 11:23:10;;;;;;;5.10;4.70;;;;;;;30.43;42.47;95008.41;5008505;28;20072;-84
2023/09/03 11:25:40;;;;;;;5.43;4.93;;;;;;;30.86;42.29;95013.53;5006327;28;20491;-84
2023/09/03 11:28:08;;;;;;;5.53;5.03;;;;;;;30.44;40.96;95006.53;5007335;28;20026;-84
2023/09/03 11:30:34;;;;;;;5.90;4.70;;;;;;;30.60;40.98;95011.28;5005735;28;20030;-84
2023/09/03 11:33:00;;;;;;;4.80;4.30;;;;;;;30.31;40.96;95013.41;5007450;28;20403;-85
2023/09/03 11:35:26;;;;;;;5.97;4.72;;;;;;;30.22;39.84;95004.44;5005987;28;20018;-83
2023/09/03 11:37:53;;;;;;;4.60;4.13;;;;;;;30.11;39.82;94998.47;5007081;28;20069;-84